Archival Weather

Ronald Reagan Washington Ntl

Arlington, Virginia (KDCA)

Report from: Sunday, March 19, 2023 1:52 PM EDT
Current time: Tuesday, February 27, 2024 6:15 AM EST

Current weather – Weather history – Daily summaries
Weather forecast

Temperature4.4°C (39.9°F)
Wind chill0.1°C (32.1°F)
Dew point-12.2°C (10.0°F)
Winds 12 kts (6.2 m/s, 13.8 mph) West-Northwest (290°)
Wind gusts 19 kts (9.8 m/s, 21.9 mph)
Visibility10 mi. (16.1 km)
Clouds Few clouds 5,500 ft. (1,676 m)
Altimeter30.18 in.Hg (1022 mB)
Relative humidity29 %
Density altitude-1,538 ft. (-469 m)
Sea-level pressure102.2 kPa (1022 mB, 30.18 in.Hg)
Max temp last 6 hours4.4°C (39.9°F)
Min temp last 6 hours-1.7°C (28.9°F)
Remarks System requires maintenance
Automated weather observing station with precipitation discriminator
Pressure falling more quickly
Flight conditions Visual Meteorological Conditions
Raw dataKDCA 191752Z 29012G19KT 10SM FEW055 04/M12 A3018 RMK AO2 SLP221 T00441122 10044 21017 58009 $
An error has occurred. This application may no longer respond until reloaded. Reload 🗙